createdAt,value
2023-04-28T00:00:37.854Z,99313.56
2023-04-28T00:03:05.300Z,99311.88
2023-04-28T00:05:32.446Z,99317.09
2023-04-28T00:07:59.505Z,99307.56
2023-04-28T00:10:26.491Z,99308.47
2023-04-28T00:12:53.433Z,99305.88
2023-04-28T00:15:21.036Z,99304.19
2023-04-28T00:17:48.110Z,99299.94
2023-04-28T00:20:15.096Z,99302.56
2023-04-28T00:22:42.111Z,99306.06
2023-04-28T00:25:09.638Z,99303.50
2023-04-28T00:27:36.523Z,99305.22
2023-04-28T00:30:04.091Z,99292.31
2023-04-28T00:32:34.057Z,99298.38
2023-04-28T00:35:02.317Z,99300.13
2023-04-28T00:37:31.660Z,99293.22
2023-04-28T00:39:58.716Z,99294.94
2023-04-28T00:42:25.815Z,99296.66
2023-04-28T00:44:52.838Z,99291.50
2023-04-28T00:47:20.934Z,99293.25
2023-04-28T00:49:49.709Z,99291.53
2023-04-28T00:52:16.675Z,99299.31
2023-04-28T00:54:43.861Z,99289.00
2023-04-28T00:57:10.941Z,99289.00
2023-04-28T00:59:38.387Z,99289.00
2023-04-28T01:02:06.592Z,99291.59
2023-04-28T01:04:33.873Z,99289.88
2023-04-28T01:07:01.839Z,99288.16
2023-04-28T01:09:29.068Z,99286.44
2023-04-28T01:11:58.439Z,99286.44
2023-04-28T01:14:46.870Z,99290.75
2023-04-28T01:17:13.859Z,99291.66
2023-04-28T01:19:41.375Z,99281.28
2023-04-28T01:22:10.746Z,99288.16
2023-04-28T01:24:37.819Z,99289.03
2023-04-28T01:27:07.252Z,99290.75
2023-04-28T01:29:34.301Z,99282.97
2023-04-28T01:32:01.297Z,99290.72
2023-04-28T01:34:28.365Z,99289.00
2023-04-28T01:36:55.480Z,99290.69
2023-04-28T01:39:22.550Z,99301.03
2023-04-28T01:41:49.587Z,99304.47
2023-04-28T01:44:16.790Z,99294.09
2023-04-28T01:46:44.153Z,99313.09
2023-04-28T01:49:11.182Z,99308.81
2023-04-28T01:51:38.234Z,99300.22
2023-04-28T01:54:05.696Z,99303.66
2023-04-28T01:56:32.681Z,99308.84
2023-04-28T01:59:00.894Z,99301.09
2023-04-28T02:01:28.023Z,99301.97
2023-04-28T02:03:55.982Z,99297.66
2023-04-28T02:06:24.177Z,99295.09
2023-04-28T02:08:51.207Z,99306.31
2023-04-28T02:11:18.179Z,99303.75
2023-04-28T02:13:45.320Z,99310.66
2023-04-28T02:16:12.520Z,99306.38
2023-04-28T02:18:39.521Z,99303.81
2023-04-28T02:21:11.447Z,99291.72
2023-04-28T02:23:39.754Z,99288.28
2023-04-28T02:26:06.849Z,99290.00
2023-04-28T02:28:33.808Z,99288.28
2023-04-28T02:31:10.931Z,99292.56
2023-04-28T02:33:38.110Z,99296.84
2023-04-28T02:36:05.735Z,99296.00
2023-04-28T02:38:32.781Z,99307.19
2023-04-28T02:41:05.094Z,99329.59
2023-04-28T02:43:32.777Z,99325.25
2023-04-28T02:46:00.312Z,99329.59
2023-04-28T02:48:27.427Z,99333.03
2023-04-28T02:50:54.471Z,99339.06
2023-04-28T02:53:22.003Z,99351.09
2023-04-28T02:55:49.637Z,99357.13
2023-04-28T02:58:18.462Z,99364.84
2023-04-28T03:00:47.048Z,99362.25
2023-04-28T03:03:15.250Z,99359.63
2023-04-28T03:05:42.668Z,99344.13
2023-04-28T03:08:10.922Z,99341.53
2023-04-28T03:10:38.103Z,99349.28
2023-04-28T03:13:05.490Z,99332.81
2023-04-28T03:15:32.474Z,99337.97
2023-04-28T03:17:59.587Z,99335.31
2023-04-28T03:20:26.614Z,99334.41
2023-04-28T03:22:53.834Z,99338.75
2023-04-28T03:25:21.001Z,99355.13
2023-04-28T03:27:51.375Z,99361.19
2023-04-28T03:30:18.437Z,99358.56
2023-04-28T03:32:46.589Z,99358.56
2023-04-28T03:35:13.986Z,99359.44
2023-04-28T03:37:42.005Z,99364.59
2023-04-28T03:40:09.586Z,99360.25
2023-04-28T03:42:56.232Z,99361.09
2023-04-28T03:45:27.976Z,99361.94
2023-04-28T03:47:55.007Z,99360.16
2023-04-28T03:50:22.919Z,99363.50
2023-04-28T03:52:50.972Z,99359.91
2023-04-28T03:55:18.175Z,99359.81
2023-04-28T03:57:45.239Z,99363.13
2023-04-28T04:00:13.168Z,99367.34
2023-04-28T04:02:43.467Z,99360.34
2023-04-28T04:05:10.951Z,99362.03
2023-04-28T04:07:38.172Z,99361.13
2023-04-28T04:10:06.189Z,99363.72
2023-04-28T04:12:35.257Z,99352.38
2023-04-28T04:15:02.648Z,99358.25
2023-04-28T04:17:32.464Z,99356.34
2023-04-28T04:19:59.522Z,99359.53
2023-04-28T04:22:27.364Z,99358.09
2023-04-28T04:24:54.553Z,99361.81
2023-04-28T04:27:22.452Z,99359.63
2023-04-28T04:29:49.475Z,99366.53
2023-04-28T04:32:16.542Z,99369.25
2023-04-28T04:34:43.464Z,99362.38
2023-04-28T04:37:11.180Z,99362.38
2023-04-28T04:39:45.192Z,99372.75
2023-04-28T04:42:24.099Z,99370.19
2023-04-28T04:45:14.414Z,99373.63
2023-04-28T04:47:42.522Z,99361.41
2023-04-28T04:50:09.662Z,99363.72
2023-04-28T04:52:37.450Z,99369.47
2023-04-28T04:55:05.501Z,99354.56
2023-04-28T04:57:33.418Z,99364.84
2023-04-28T05:00:10.853Z,99365.81
2023-04-28T05:02:38.788Z,99363.34
2023-04-28T05:05:19.846Z,99361.66
2023-04-28T05:07:52.701Z,99359.09
2023-04-28T05:10:21.545Z,99357.38
2023-04-28T05:12:49.322Z,99357.38
2023-04-28T05:15:18.280Z,99359.94
2023-04-28T05:17:59.713Z,99359.06
2023-04-28T05:20:26.743Z,99362.50
2023-04-28T05:22:55.655Z,99364.09
2023-04-28T05:25:22.663Z,99372.69
2023-04-28T05:27:49.545Z,99365.69
2023-04-28T05:30:16.657Z,99378.72
2023-04-28T05:32:43.769Z,99370.91
2023-04-28T05:35:10.774Z,99377.06
2023-04-28T05:37:38.256Z,99377.91
2023-04-28T05:40:06.021Z,99380.50
2023-04-28T05:42:33.650Z,99382.31
2023-04-28T05:45:01.158Z,99375.50
2023-04-28T05:47:31.282Z,99379.97
2023-04-28T05:49:58.762Z,99378.31
2023-04-28T05:52:25.765Z,99392.28
2023-04-28T05:54:53.403Z,99385.47
2023-04-28T05:57:20.899Z,99398.56
2023-04-28T05:59:47.866Z,99391.69
2023-04-28T06:02:15.237Z,99393.47
2023-04-28T06:04:42.936Z,99384.88
2023-04-28T06:07:10.796Z,99383.09
2023-04-28T06:09:38.617Z,99390.91
2023-04-28T06:12:06.341Z,99387.38
2023-04-28T06:14:33.391Z,99390.84
2023-04-28T06:17:00.615Z,99391.53
2023-04-28T06:19:27.674Z,99394.75
2023-04-28T06:21:54.609Z,99387.59
2023-04-28T06:24:21.700Z,99386.41
2023-04-28T06:26:49.183Z,99382.56
2023-04-28T06:29:16.366Z,99389.25
2023-04-28T06:31:43.455Z,99389.00
2023-04-28T06:34:11.056Z,99370.56
2023-04-28T06:36:38.032Z,99376.13
2023-04-28T06:39:05.142Z,99377.16
2023-04-28T06:41:33.822Z,99378.31
2023-04-28T06:44:02.761Z,99379.53
2023-04-28T06:46:31.751Z,99377.28
2023-04-28T06:48:58.783Z,99381.28
2023-04-28T06:51:27.015Z,99380.63
2023-04-28T06:53:54.278Z,99378.06
2023-04-28T06:56:21.257Z,99376.25
2023-04-28T06:58:48.771Z,99377.31
2023-04-28T07:01:16.129Z,99374.81
2023-04-28T07:03:43.228Z,99382.09
2023-04-28T07:06:11.646Z,99388.88
2023-04-28T07:08:38.711Z,99391.00
2023-04-28T07:11:06.470Z,99385.84
2023-04-28T07:13:33.708Z,99394.41
2023-04-28T07:16:01.061Z,99388.72
2023-04-28T07:18:28.702Z,99388.88
2023-04-28T07:20:55.853Z,99389.97
2023-04-28T07:23:22.969Z,99390.88
2023-04-28T07:25:49.953Z,99387.34
2023-04-28T07:28:17.279Z,99380.16
2023-04-28T07:30:44.334Z,99382.91
2023-04-28T07:33:11.589Z,99385.66
2023-04-28T07:35:38.584Z,99373.81
2023-04-28T07:38:05.666Z,99388.84
2023-04-28T07:40:32.910Z,99376.44
2023-04-28T07:42:59.909Z,99374.47
2023-04-28T07:45:27.266Z,99373.78
2023-04-28T07:47:54.484Z,99373.41
2023-04-28T07:50:21.597Z,99370.94
2023-04-28T07:52:49.127Z,99380.81
2023-04-28T07:55:16.532Z,99384.47
2023-04-28T07:57:43.516Z,99374.75
2023-04-28T08:00:12.136Z,99378.31
2023-04-28T08:02:40.046Z,99379.19
2023-04-28T08:05:10.161Z,99367.91
2023-04-28T08:07:38.158Z,99373.94
2023-04-28T08:10:05.695Z,99373.03
2023-04-28T08:12:33.098Z,99367.59
2023-04-28T08:15:00.352Z,99373.34
2023-04-28T08:17:27.914Z,99369.75
2023-04-28T08:19:55.206Z,99364.63
2023-04-28T08:22:22.493Z,99365.88
2023-04-28T08:24:49.593Z,99365.38
2023-04-28T08:27:16.685Z,99362.81
2023-04-28T08:29:43.656Z,99366.28
2023-04-28T08:32:10.729Z,99359.28
2023-04-28T08:34:37.766Z,99367.69
2023-04-28T08:37:05.164Z,99369.28
2023-04-28T08:39:34.384Z,99366.56
2023-04-28T08:42:07.454Z,99353.34
2023-04-28T08:44:40.644Z,99349.59
2023-04-28T08:47:14.508Z,99359.69
2023-04-28T08:49:41.748Z,99365.28
2023-04-28T08:52:13.052Z,99349.25
2023-04-28T08:54:41.128Z,99354.69
2023-04-28T08:57:11.057Z,99349.34
2023-04-28T08:59:39.950Z,99352.06
2023-04-28T09:02:08.778Z,99351.84
2023-04-28T09:04:36.220Z,99342.59
2023-04-28T09:07:04.038Z,99352.22
2023-04-28T09:09:34.235Z,99357.69
2023-04-28T09:12:04.204Z,99360.06
2023-04-28T09:14:35.447Z,99350.91
2023-04-28T09:17:03.074Z,99352.50
2023-04-28T09:19:34.473Z,99368.53
2023-04-28T09:22:05.691Z,99355.88
2023-04-28T09:24:43.136Z,99349.63
2023-04-28T09:27:12.012Z,99345.78
2023-04-28T09:29:39.622Z,99349.75
2023-04-28T09:32:17.213Z,99339.44
2023-04-28T09:34:45.726Z,99341.31
2023-04-28T09:37:27.311Z,99343.94
2023-04-28T09:39:55.060Z,99341.31
2023-04-28T09:42:41.916Z,99349.25
2023-04-28T09:45:09.778Z,99342.28
2023-04-28T09:47:41.829Z,99356.41
2023-04-28T09:50:11.837Z,99354.91
2023-04-28T09:52:38.983Z,99357.00
2023-04-28T09:55:08.822Z,99361.66
2023-04-28T09:57:36.391Z,99352.44
2023-04-28T10:00:06.679Z,99351.00
2023-04-28T10:05:13.118Z,99362.16
2023-04-28T10:07:40.652Z,99351.16
2023-04-28T10:10:08.139Z,99353.97
2023-04-28T10:12:38.435Z,99352.31
2023-04-28T10:15:07.696Z,99362.72
2023-04-28T10:17:35.171Z,99352.97
2023-04-28T10:20:03.342Z,99366.50
2023-04-28T10:22:59.871Z,99359.06
2023-04-28T10:25:35.378Z,99373.56
2023-04-28T10:28:06.130Z,99390.91
2023-04-28T10:30:34.152Z,99392.78
2023-04-28T10:33:13.631Z,99389.72
2023-04-28T10:35:42.957Z,99397.00
2023-04-28T10:38:21.528Z,99392.41
2023-04-28T10:40:49.387Z,99396.41
2023-04-28T10:43:25.448Z,99407.13
2023-04-28T10:46:01.973Z,99406.66
2023-04-28T10:48:30.092Z,99419.91
2023-04-28T10:51:13.069Z,99432.50
2023-04-28T10:53:43.725Z,99426.09
2023-04-28T10:56:11.744Z,99417.13
2023-04-28T10:58:42.914Z,99415.75
2023-04-28T11:01:19.249Z,99434.34
2023-04-28T11:03:50.495Z,99418.03
2023-04-28T11:06:32.270Z,99414.75
2023-04-28T11:09:02.737Z,99413.25
2023-04-28T11:11:38.971Z,99408.13
2023-04-28T11:14:21.227Z,99409.81
2023-04-28T11:17:04.716Z,99398.50
2023-04-28T11:19:36.569Z,99410.78
2023-04-28T11:22:11.759Z,99410.00
2023-04-28T11:24:39.198Z,99411.84
2023-04-28T11:27:06.697Z,99410.13
2023-04-28T11:29:40.381Z,99408.47
2023-04-28T11:32:09.200Z,99399.88
2023-04-28T11:34:37.464Z,99409.56
2023-04-28T11:37:07.344Z,99408.75
2023-04-28T11:39:34.747Z,99404.53
2023-04-28T11:42:03.286Z,99388.13
2023-04-28T11:44:31.434Z,99377.63
2023-04-28T11:47:03.678Z,99376.66
2023-04-28T11:49:44.653Z,99381.88
2023-04-28T11:52:12.219Z,99367.19
2023-04-28T11:54:39.983Z,99372.28
2023-04-28T11:57:07.471Z,99376.53
2023-04-28T11:59:35.726Z,99371.31
2023-04-28T12:02:07.175Z,99370.28
2023-04-28T12:04:41.784Z,99371.75
2023-04-28T12:07:18.790Z,99372.25
2023-04-28T12:09:48.453Z,99367.59
2023-04-28T12:12:40.008Z,99367.41
2023-04-28T12:15:13.354Z,99375.88
2023-04-28T12:17:41.976Z,99368.09
2023-04-28T12:20:13.539Z,99365.50
2023-04-28T12:22:48.474Z,99371.47
2023-04-28T12:25:17.977Z,99365.31
2023-04-28T12:28:07.866Z,99360.06
2023-04-28T12:30:39.285Z,99357.38
2023-04-28T12:33:06.594Z,99358.25
2023-04-28T12:35:33.895Z,99356.47
2023-04-28T12:38:01.282Z,99360.72
2023-04-28T12:40:28.746Z,99349.47
2023-04-28T12:42:56.837Z,99352.22
2023-04-28T12:45:24.073Z,99345.31
2023-04-28T12:47:51.586Z,99341.84
2023-04-28T12:50:18.970Z,99348.00
2023-04-28T12:52:46.199Z,99346.22
2023-04-28T12:55:13.604Z,99343.50
2023-04-28T12:57:40.923Z,99336.38
2023-04-28T13:00:08.948Z,99334.50
2023-04-28T13:02:37.154Z,99334.44
2023-04-28T13:05:04.668Z,99328.31
2023-04-28T13:07:32.223Z,99329.94
2023-04-28T13:10:00.578Z,99330.75
2023-04-28T13:12:28.008Z,99321.22
2023-04-28T13:14:55.423Z,99322.28
2023-04-28T13:17:23.031Z,99323.53
2023-04-28T13:19:50.493Z,99327.25
2023-04-28T13:22:17.935Z,99323.06
2023-04-28T13:24:45.371Z,99328.38
2023-04-28T13:27:12.774Z,99336.31
2023-04-28T13:29:40.213Z,99338.19
2023-04-28T13:32:07.279Z,99338.22
2023-04-28T13:34:34.563Z,99347.84
2023-04-28T13:37:01.580Z,99344.34
2023-04-28T13:39:28.684Z,99344.44
2023-04-28T13:41:55.639Z,99350.72
2023-04-28T13:44:22.725Z,99355.25
2023-04-28T13:46:49.881Z,99342.28
2023-04-28T13:49:17.113Z,99343.31
2023-04-28T13:51:45.718Z,99347.00
2023-04-28T13:54:13.132Z,99341.03
2023-04-28T13:56:40.378Z,99339.34
2023-04-28T13:59:07.729Z,99347.13
2023-04-28T14:01:34.847Z,99341.16
2023-04-28T14:04:02.397Z,99331.66
2023-04-28T14:06:29.634Z,99346.41
2023-04-28T14:08:56.733Z,99349.91
2023-04-28T14:11:23.818Z,99350.03
2023-04-28T14:13:50.988Z,99350.94
2023-04-28T14:16:18.290Z,99352.78
2023-04-28T14:18:45.310Z,99352.88
2023-04-28T14:21:12.389Z,99346.88
2023-04-28T14:23:39.457Z,99347.78
2023-04-28T14:26:06.995Z,99341.75
2023-04-28T14:28:34.095Z,99339.16
2023-04-28T14:31:06.454Z,99334.75
2023-04-28T14:33:33.538Z,99338.22
2023-04-28T14:36:02.237Z,99335.66
2023-04-28T14:38:30.718Z,99332.22
2023-04-28T14:40:57.885Z,99325.34
2023-04-28T14:43:25.073Z,99336.72
2023-04-28T14:45:52.504Z,99328.91
2023-04-28T14:48:20.223Z,99326.31
2023-04-28T14:50:47.707Z,99326.38
2023-04-28T14:53:14.713Z,99329.00
2023-04-28T14:55:41.706Z,99325.56
2023-04-28T14:58:08.680Z,99333.38
2023-04-28T15:00:36.061Z,99334.19
2023-04-28T15:03:04.100Z,99329.06
2023-04-28T15:05:31.236Z,99330.78
2023-04-28T15:07:58.306Z,99328.16
2023-04-28T15:10:25.264Z,99325.56
2023-04-28T15:12:52.351Z,99328.22
2023-04-28T15:15:19.305Z,99337.81
2023-04-28T15:17:46.367Z,99341.38
2023-04-28T15:20:13.451Z,99332.75
2023-04-28T15:22:41.038Z,99335.50
2023-04-28T15:25:08.445Z,99340.88
2023-04-28T15:27:35.508Z,99349.59
2023-04-28T15:30:02.715Z,99341.88
2023-04-28T15:32:32.568Z,99336.69
2023-04-28T15:35:00.445Z,99338.44
2023-04-28T15:37:43.882Z,99341.94
2023-04-28T15:40:12.890Z,99343.66
2023-04-28T15:42:42.292Z,99339.41
2023-04-28T15:45:10.513Z,99344.63
2023-04-28T15:47:39.222Z,99338.56
2023-04-28T15:50:09.030Z,99351.59
2023-04-28T15:52:38.671Z,99341.19
2023-04-28T15:55:06.974Z,99337.69
2023-04-28T15:57:34.602Z,99350.59
2023-04-28T16:00:01.772Z,99351.44
2023-04-28T16:02:35.414Z,99351.34
2023-04-28T16:05:05.299Z,99350.53
2023-04-28T16:07:38.072Z,99350.59
2023-04-28T16:10:10.419Z,99351.59
2023-04-28T16:12:38.679Z,99350.88
2023-04-28T16:15:07.177Z,99357.22
2023-04-28T16:17:36.073Z,99366.13
2023-04-28T16:20:06.073Z,99363.63
2023-04-28T16:22:33.972Z,99364.53
2023-04-28T16:25:03.673Z,99355.03
2023-04-28T16:27:33.312Z,99355.09
2023-04-28T16:30:00.645Z,99355.19
2023-04-28T16:32:27.840Z,99359.69
2023-04-28T16:34:57.478Z,99362.34
2023-04-28T16:37:24.376Z,99353.81
2023-04-28T16:39:51.548Z,99354.75
2023-04-28T16:42:21.190Z,99360.03
2023-04-28T16:44:49.512Z,99365.44
2023-04-28T16:47:17.539Z,99362.06
2023-04-28T16:49:44.561Z,99366.41
2023-04-28T16:52:11.589Z,99369.00
2023-04-28T16:54:38.639Z,99365.63
2023-04-28T16:57:06.438Z,99371.66
2023-04-28T16:59:34.177Z,99372.53
2023-04-28T17:02:02.073Z,99373.50
2023-04-28T17:04:29.599Z,99370.06
2023-04-28T17:06:57.013Z,99367.53
2023-04-28T17:09:24.054Z,99366.88
2023-04-28T17:11:51.451Z,99361.78
2023-04-28T17:14:18.488Z,99369.72
2023-04-28T17:16:45.862Z,99391.38
2023-04-28T17:19:12.953Z,99390.53
2023-04-28T17:21:40.133Z,99400.97
2023-04-28T17:24:07.266Z,99398.50
2023-04-28T17:26:34.520Z,99398.53
2023-04-28T17:29:02.474Z,99415.09
2023-04-28T17:31:29.726Z,99415.09
2023-04-28T17:33:57.866Z,99412.56
2023-04-28T17:36:27.411Z,99414.38
2023-04-28T17:38:55.182Z,99419.63
2023-04-28T17:41:22.887Z,99407.56
2023-04-28T17:43:52.008Z,99408.47
2023-04-28T17:46:19.207Z,99412.00
2023-04-28T17:48:46.381Z,99408.56
2023-04-28T17:51:13.305Z,99408.59
2023-04-28T17:53:40.415Z,99412.06
2023-04-28T17:56:08.275Z,99404.31
2023-04-28T17:58:36.463Z,99408.69
2023-04-28T18:01:04.176Z,99408.69
2023-04-28T18:03:32.505Z,99407.84
2023-04-28T18:05:59.737Z,99411.34
2023-04-28T18:08:26.720Z,99414.00
2023-04-28T18:10:53.803Z,99411.44
2023-04-28T18:13:20.695Z,99422.69
2023-04-28T18:15:47.989Z,99423.59
2023-04-28T18:18:15.123Z,99431.44
2023-04-28T18:20:42.324Z,99424.50
2023-04-28T18:23:09.831Z,99427.97
2023-04-28T18:25:37.182Z,99424.53
2023-04-28T18:28:04.898Z,99429.78
2023-04-28T18:30:37.980Z,99435.84
2023-04-28T18:33:08.746Z,99428.97
2023-04-28T18:35:37.034Z,99430.75
2023-04-28T18:38:05.171Z,99429.91
2023-04-28T18:40:37.781Z,99433.41
2023-04-28T18:43:06.043Z,99430.84
2023-04-28T18:45:39.277Z,99439.50
2023-04-28T18:48:07.483Z,99437.78
2023-04-28T18:50:36.386Z,99430.91
2023-04-28T18:53:04.464Z,99434.34
2023-04-28T18:55:34.553Z,99425.72
2023-04-28T18:58:04.655Z,99427.50
2023-04-28T19:00:32.886Z,99424.94
2023-04-28T19:03:01.857Z,99429.31
2023-04-28T19:05:30.523Z,99413.75
2023-04-28T19:07:57.547Z,99423.28
2023-04-28T19:10:24.714Z,99417.22
2023-04-28T19:12:52.134Z,99419.00
2023-04-28T19:15:19.458Z,99418.16
2023-04-28T19:17:46.796Z,99412.13
2023-04-28T19:20:14.171Z,99403.50
2023-04-28T19:22:41.561Z,99389.72
2023-04-28T19:25:09.148Z,99387.09
2023-04-28T19:27:37.702Z,99394.03
2023-04-28T19:30:06.301Z,99405.28
2023-04-28T19:32:33.639Z,99408.78
2023-04-28T19:35:03.188Z,99410.53
2023-04-28T19:37:35.688Z,99413.09
2023-04-28T19:40:04.909Z,99412.25
2023-04-28T19:42:33.224Z,99414.00
2023-04-28T19:45:00.288Z,99416.56
2023-04-28T19:47:28.554Z,99418.31
2023-04-28T19:49:55.885Z,99419.19
2023-04-28T19:52:23.249Z,99422.66
2023-04-28T19:54:50.654Z,99422.69
2023-04-28T19:57:18.709Z,99421.81
2023-04-28T19:59:46.708Z,99422.69
2023-04-28T20:02:14.167Z,99419.25
2023-04-28T20:04:41.568Z,99419.25
2023-04-28T20:07:09.339Z,99408.09
2023-04-28T20:09:37.357Z,99416.69
2023-04-28T20:12:05.508Z,99419.28
2023-04-28T20:14:32.651Z,99417.56
2023-04-28T20:17:00.589Z,99417.56
2023-04-28T20:19:27.747Z,99421.88
2023-04-28T20:21:54.831Z,99427.03
2023-04-28T20:24:21.987Z,99434.78
2023-04-28T20:26:50.764Z,99429.63
2023-04-28T20:29:17.993Z,99431.34
2023-04-28T20:31:45.082Z,99427.88
2023-04-28T20:34:13.358Z,99421.88
2023-04-28T20:36:42.686Z,99420.13
2023-04-28T20:39:11.799Z,99428.72
2023-04-28T20:41:41.094Z,99428.75
2023-04-28T20:44:08.697Z,99423.56
2023-04-28T20:46:36.165Z,99423.56
2023-04-28T20:49:04.387Z,99415.81
2023-04-28T20:51:34.215Z,99420.13
2023-04-28T20:54:01.528Z,99425.28
2023-04-28T20:56:28.684Z,99421.84
2023-04-28T20:58:55.921Z,99420.97
2023-04-28T21:01:23.271Z,99421.81
2023-04-28T21:03:50.728Z,99420.06
2023-04-28T21:06:17.862Z,99419.19
2023-04-28T21:08:45.233Z,99415.72
2023-04-28T21:11:13.188Z,99423.47
2023-04-28T21:13:42.698Z,99420.88
2023-04-28T21:16:20.240Z,99415.72
2023-04-28T21:18:49.268Z,99416.53
2023-04-28T21:21:16.601Z,99411.34
2023-04-28T21:23:44.403Z,99406.16
2023-04-28T21:26:11.463Z,99397.56
2023-04-28T21:28:39.962Z,99405.28
2023-04-28T21:31:07.339Z,99414.75
2023-04-28T21:33:34.361Z,99416.44
2023-04-28T21:36:05.578Z,99417.31
2023-04-28T21:38:33.341Z,99412.13
2023-04-28T21:41:00.745Z,99404.38
2023-04-28T21:43:27.722Z,99408.69
2023-04-28T21:45:54.754Z,99410.38
2023-04-28T21:48:21.735Z,99410.38
2023-04-28T21:50:48.892Z,99406.97
2023-04-28T21:53:15.838Z,99400.91
2023-04-28T21:55:44.545Z,99404.38
2023-04-28T21:58:11.728Z,99401.72
2023-04-28T22:00:43.567Z,99391.38
2023-04-28T22:03:10.749Z,99387.94
2023-04-28T22:05:39.581Z,99387.94
2023-04-28T22:08:06.642Z,99381.03
2023-04-28T22:10:34.153Z,99368.97
2023-04-28T22:13:01.553Z,99377.59
2023-04-28T22:15:28.742Z,99369.84
2023-04-28T22:17:55.900Z,99370.66
2023-04-28T22:20:22.973Z,99367.22
2023-04-28T22:22:49.952Z,99364.63
2023-04-28T22:25:17.488Z,99378.38
2023-04-28T22:27:44.403Z,99380.09
2023-04-28T22:30:11.841Z,99375.78
2023-04-28T22:32:38.875Z,99370.63
2023-04-28T22:35:06.346Z,99380.06
2023-04-28T22:37:34.134Z,99380.91
2023-04-28T22:40:01.296Z,99383.47
2023-04-28T22:42:31.340Z,99383.47
2023-04-28T22:44:58.507Z,99380.03
2023-04-28T22:47:25.427Z,99367.09
2023-04-28T22:49:52.721Z,99371.38
2023-04-28T22:52:21.437Z,99386.00
2023-04-28T22:54:49.129Z,99386.81
2023-04-28T22:57:16.387Z,99382.53
2023-04-28T22:59:43.524Z,99380.81
2023-04-28T23:02:12.397Z,99367.00
2023-04-28T23:04:40.246Z,99360.13
2023-04-28T23:07:07.791Z,99357.47
2023-04-28T23:09:36.273Z,99354.88
2023-04-28T23:12:04.124Z,99355.75
2023-04-28T23:14:32.635Z,99355.72
2023-04-28T23:16:59.667Z,99347.94
2023-04-28T23:19:26.665Z,99345.38
2023-04-28T23:21:54.486Z,99339.34
2023-04-28T23:24:21.420Z,99340.22
2023-04-28T23:26:48.379Z,99336.72
2023-04-28T23:29:15.392Z,99334.13
2023-04-28T23:31:42.420Z,99343.59
2023-04-28T23:34:09.523Z,99335.84
2023-04-28T23:36:37.883Z,99343.50
2023-04-28T23:39:04.960Z,99346.94
2023-04-28T23:41:31.934Z,99346.09
2023-04-28T23:43:58.848Z,99348.63
2023-04-28T23:46:25.929Z,99352.03
2023-04-28T23:48:52.890Z,99345.16
2023-04-28T23:51:19.907Z,99340.84
2023-04-28T23:53:46.960Z,99346.78
2023-04-28T23:56:14.021Z,99338.19
2023-04-28T23:58:41.920Z,99346.78
